KPKD

Park Rapids Municipal-Konshok Field Airport

Park Rapids, Minnesota, USA
METAR KPKD 200853Z AUTO 31003KT 10SM CLR 13/12 A2999 RMK AO2 SLP153 T01280117 55007
Observed Flight Rules
Jun-20 @ 08:53 UTC (18 minutes ago) Visual Flight Rules
Wind Visibility Clouds
310° at 3 knots 10 miles
  • Clear skies
Temperatures Readings
Current 13°C / 55°F
Dewpoint 12°C / 54°F
Humidity 94%
Altimeter 29.99" Hg
Pressure 1015.3 hPa
Elevation 442
METAR KPKD 200853Z AUTO 31003KT 10SM CLR 13/12 A2999 RMK AO2 SLP153 T01280117 55007
Observed Flight Rules
Jun-20 @ 08:53 UTC
(18 minutes ago)
VFR
Wind Visibility
310° at 3 knots 10 miles
Clouds
  • Clear skies
Temperature Dewpoint
13°C / 55°F 12°C / 54°F
Humidity Altimeter Pressure
94% 29.99" Hg 1015.3 hPa